createdAt,value
2022-11-12T00:02:43.098Z,99976.63
2022-11-12T00:05:46.804Z,99982.00
2022-11-12T00:08:48.457Z,99981.84
2022-11-12T00:11:50.026Z,99982.53
2022-11-12T00:14:51.496Z,99982.31
2022-11-12T00:17:53.064Z,99985.75
2022-11-12T00:20:56.016Z,99983.06
2022-11-12T00:23:57.547Z,99984.88
2022-11-12T00:26:59.116Z,99988.50
2022-11-12T00:30:00.775Z,99985.13
2022-11-12T00:33:05.334Z,99992.34
2022-11-12T00:36:08.984Z,99988.88
2022-11-12T00:39:10.475Z,99993.38
2022-11-12T00:42:11.999Z,99989.06
2022-11-12T00:45:13.549Z,99986.47
2022-11-12T00:48:15.140Z,99994.34
2022-11-12T00:51:18.357Z,99995.06
2022-11-12T00:54:19.946Z,99995.00
2022-11-12T00:57:21.411Z,100002.13
2022-11-12T01:00:23.142Z,100002.16
2022-11-12T01:03:27.645Z,100006.66
2022-11-12T01:06:30.853Z,100004.09
2022-11-12T01:09:32.286Z,100000.63
2022-11-12T01:12:33.906Z,100005.97
2022-11-12T01:15:39.969Z,100009.56
2022-11-12T01:18:41.679Z,100012.25
2022-11-12T01:21:45.044Z,100011.38
2022-11-12T01:24:46.557Z,100011.38
2022-11-12T01:27:48.212Z,100010.50
2022-11-12T01:30:51.989Z,100012.31
2022-11-12T01:33:54.478Z,100018.50
2022-11-12T01:36:57.470Z,100014.06
2022-11-12T01:39:58.990Z,100011.38
2022-11-12T01:43:00.525Z,100003.47
2022-11-12T01:46:03.267Z,100004.34
2022-11-12T01:49:06.478Z,99994.59
2022-11-12T01:52:16.129Z,99999.88
2022-11-12T01:55:20.056Z,100002.59
2022-11-12T01:58:24.234Z,100008.78
2022-11-12T02:01:26.283Z,100007.03
2022-11-12T02:04:28.338Z,100007.91
2022-11-12T02:07:31.772Z,100008.78
2022-11-12T02:10:34.240Z,100012.34
2022-11-12T02:13:54.423Z,100015.94
2022-11-12T02:16:56.008Z,100022.19
2022-11-12T02:19:58.764Z,100016.91
2022-11-12T02:23:01.869Z,100009.00
2022-11-12T02:26:03.605Z,100006.34
2022-11-12T02:29:05.484Z,100003.75
2022-11-12T02:32:07.355Z,100007.28
2022-11-12T02:35:09.167Z,100001.06
2022-11-12T02:38:12.105Z,100002.84
2022-11-12T02:41:13.768Z,99996.66
2022-11-12T02:44:15.266Z,99998.47
2022-11-12T02:47:17.017Z,99991.50
2022-11-12T02:50:18.610Z,99992.38
2022-11-12T02:53:21.497Z,99984.44
2022-11-12T02:56:23.013Z,99985.34
2022-11-12T02:59:24.946Z,99991.53
2022-11-12T03:02:26.499Z,99991.56
2022-11-12T03:05:29.044Z,99995.97
2022-11-12T03:08:32.009Z,99994.19
2022-11-12T03:11:33.641Z,99991.53
2022-11-12T03:14:35.199Z,99992.44
2022-11-12T03:17:36.760Z,99991.50
2022-11-12T03:20:38.764Z,99995.00
2022-11-12T03:23:41.826Z,100000.25
2022-11-12T03:26:43.324Z,100000.25
2022-11-12T03:29:44.859Z,99999.41
2022-11-12T03:32:46.315Z,100005.63
2022-11-12T03:35:47.870Z,99995.94
2022-11-12T03:38:50.753Z,99991.53
2022-11-12T03:41:52.311Z,99990.66
2022-11-12T03:44:53.865Z,99995.09
2022-11-12T03:47:56.473Z,99996.88
2022-11-12T03:50:58.952Z,99980.09
2022-11-12T03:54:01.868Z,99982.75
2022-11-12T03:57:03.335Z,99977.47
2022-11-12T04:00:05.886Z,99975.72
2022-11-12T04:03:07.458Z,99972.16
2022-11-12T04:06:27.779Z,99972.19
2022-11-12T04:09:30.817Z,99981.03
2022-11-12T04:12:50.827Z,99978.41
2022-11-12T04:16:12.611Z,99976.63
2022-11-12T04:19:33.089Z,99971.34
2022-11-12T04:22:34.646Z,99975.75
2022-11-12T04:25:57.715Z,99969.59
2022-11-12T04:29:17.566Z,99968.69
2022-11-12T04:32:19.094Z,99960.78
2022-11-12T04:35:21.460Z,99962.56
2022-11-12T04:38:23.109Z,99959.94
2022-11-12T04:41:49.391Z,99963.47
2022-11-12T04:45:04.779Z,99955.56
2022-11-12T04:48:06.341Z,99963.50
2022-11-12T04:51:27.867Z,99974.97
2022-11-12T04:54:29.819Z,99964.44
2022-11-12T04:57:32.698Z,99974.16
2022-11-12T05:00:34.274Z,99971.50
2022-11-12T05:03:35.979Z,99975.94
2022-11-12T05:06:52.698Z,99978.63
2022-11-12T05:09:54.189Z,99975.94
2022-11-12T05:12:57.467Z,99964.50
2022-11-12T05:15:58.888Z,99974.22
2022-11-12T05:19:00.498Z,99975.09
2022-11-12T05:22:17.469Z,99983.94
2022-11-12T05:25:28.866Z,99982.16
2022-11-12T05:28:31.789Z,99976.00
2022-11-12T05:31:33.335Z,99974.25
2022-11-12T05:34:35.117Z,99976.88
2022-11-12T05:37:36.716Z,99972.44
2022-11-12T05:40:38.256Z,99973.31
2022-11-12T05:43:41.113Z,99969.72
2022-11-12T05:46:42.625Z,99960.84
2022-11-12T05:49:44.082Z,99952.81
2022-11-12T05:52:45.861Z,99958.97
2022-11-12T05:55:47.412Z,99956.31
2022-11-12T05:58:50.320Z,99955.44
2022-11-12T06:01:52.003Z,99950.22
2022-11-12T06:04:53.678Z,99966.13
2022-11-12T06:07:55.182Z,99955.50
2022-11-12T06:10:56.690Z,99953.75
2022-11-12T06:13:59.532Z,99950.22
2022-11-12T06:17:01.115Z,99966.97
2022-11-12T06:20:02.668Z,99967.84
2022-11-12T06:23:04.600Z,99970.50
2022-11-12T06:26:06.168Z,99971.34
2022-11-12T06:29:09.247Z,99974.00
2022-11-12T06:32:11.238Z,99970.47
2022-11-12T06:35:13.040Z,99972.25
2022-11-12T06:38:14.561Z,99973.16
2022-11-12T06:41:16.166Z,99978.44
2022-11-12T06:44:22.339Z,99978.44
2022-11-12T06:47:24.154Z,99979.31
2022-11-12T06:50:25.889Z,99988.16
2022-11-12T06:53:27.436Z,99990.81
2022-11-12T06:56:29.100Z,99976.69
2022-11-12T06:59:31.987Z,99984.66
2022-11-12T07:02:33.509Z,99994.38
2022-11-12T07:05:36.091Z,99995.28
2022-11-12T07:08:38.368Z,99990.84
2022-11-12T07:11:40.034Z,99989.97
2022-11-12T07:14:43.004Z,99982.03
2022-11-12T07:17:45.551Z,99981.16
2022-11-12T07:20:47.171Z,99990.81
2022-11-12T07:23:49.044Z,100002.28
2022-11-12T07:26:50.513Z,100002.28
2022-11-12T07:29:53.392Z,100005.75
2022-11-12T07:32:57.526Z,100000.47
2022-11-12T07:35:59.972Z,100000.47
2022-11-12T07:39:01.538Z,99996.06
2022-11-12T07:42:03.215Z,99998.69
2022-11-12T07:45:07.103Z,100005.69
2022-11-12T07:48:08.585Z,100008.34
2022-11-12T07:51:12.841Z,100012.75
2022-11-12T07:54:14.656Z,100008.28
2022-11-12T07:57:16.262Z,100005.66
2022-11-12T08:00:19.585Z,100010.94
2022-11-12T08:03:21.191Z,100005.59
2022-11-12T08:06:22.638Z,100006.47
2022-11-12T08:09:24.375Z,100010.00
2022-11-12T08:12:26.231Z,100005.53
2022-11-12T08:15:32.449Z,100012.56
2022-11-12T08:18:34.269Z,100014.28
2022-11-12T08:21:36.424Z,100016.03
2022-11-12T08:24:37.962Z,100012.47
2022-11-12T08:27:39.485Z,100020.38
2022-11-12T08:30:42.411Z,100017.69
2022-11-12T08:33:44.089Z,100021.16
2022-11-12T08:36:45.592Z,100020.19
2022-11-12T08:39:47.168Z,100013.13
2022-11-12T08:42:48.768Z,100014.00
2022-11-12T08:45:51.691Z,100015.72
2022-11-12T08:48:53.218Z,100012.13
2022-11-12T08:51:54.884Z,100013.84
2022-11-12T08:54:56.681Z,100008.53
2022-11-12T08:58:02.022Z,100000.59
2022-11-12T09:01:07.099Z,100013.84
2022-11-12T09:04:08.885Z,100007.63
2022-11-12T09:07:28.607Z,100012.84
2022-11-12T09:10:32.975Z,100011.03
2022-11-12T09:13:34.626Z,100006.56
2022-11-12T09:16:37.840Z,100002.94
2022-11-12T09:19:42.893Z,100002.91
2022-11-12T09:22:44.952Z,100014.38
2022-11-12T09:25:46.425Z,100019.59
2022-11-12T09:28:48.194Z,100017.75
2022-11-12T09:31:51.353Z,100015.06
2022-11-12T09:34:52.972Z,100027.38
2022-11-12T09:37:54.593Z,100021.13
2022-11-12T09:41:14.582Z,100022.78
2022-11-12T09:44:18.781Z,100019.97
2022-11-12T09:47:26.712Z,100019.84
2022-11-12T09:50:30.482Z,100017.91
2022-11-12T09:53:34.533Z,100016.00
2022-11-12T09:56:38.344Z,100014.09
2022-11-12T09:59:42.510Z,99995.56
2022-11-12T10:02:52.553Z,100013.06
2022-11-12T10:05:58.440Z,100008.59
2022-11-12T10:09:10.659Z,100011.19
2022-11-12T10:12:33.627Z,100010.22
2022-11-12T10:15:55.940Z,100008.31
2022-11-12T10:19:06.402Z,100010.00
2022-11-12T10:22:18.223Z,100012.63
2022-11-12T10:25:20.399Z,100009.88
2022-11-12T10:28:27.162Z,100006.19
2022-11-12T10:31:29.560Z,99999.91
2022-11-12T10:34:36.026Z,99998.84
2022-11-12T10:37:41.487Z,100005.81
2022-11-12T10:40:43.120Z,100009.19
2022-11-12T10:43:52.851Z,100003.75
2022-11-12T10:47:14.909Z,100018.75
2022-11-12T10:50:22.555Z,100013.34
2022-11-12T10:53:32.755Z,100013.19
2022-11-12T10:56:34.474Z,100009.50
2022-11-12T10:59:35.987Z,100006.66
2022-11-12T11:02:37.662Z,100003.81
2022-11-12T11:05:50.403Z,100001.88
2022-11-12T11:08:52.946Z,100002.63
2022-11-12T11:11:56.830Z,99999.00
2022-11-12T11:15:07.605Z,99993.53
2022-11-12T11:18:10.769Z,99986.94
2022-11-12T11:21:19.039Z,99997.41
2022-11-12T11:24:36.687Z,99991.78
2022-11-12T11:27:45.199Z,99994.00
2022-11-12T11:30:52.064Z,99981.41
2022-11-12T11:33:56.589Z,99987.66
2022-11-12T11:37:05.724Z,99985.91
2022-11-12T11:40:14.988Z,99983.34
2022-11-12T11:43:27.200Z,99979.78
2022-11-12T11:46:41.301Z,99970.91
2022-11-12T11:49:51.058Z,99966.41
2022-11-12T11:53:01.216Z,99961.03
2022-11-12T11:56:05.166Z,99957.44
2022-11-12T11:59:17.011Z,99962.66
2022-11-12T12:02:33.215Z,99961.66
2022-11-12T12:05:40.627Z,99961.50
2022-11-12T12:08:58.248Z,99950.84
2022-11-12T12:12:04.066Z,99949.91
2022-11-12T12:15:19.117Z,99952.44
2022-11-12T12:18:26.448Z,99951.47
2022-11-12T12:21:32.294Z,99932.66
2022-11-12T12:24:42.375Z,99933.41
2022-11-12T12:27:50.080Z,99930.72
2022-11-12T12:30:53.704Z,99930.72
2022-11-12T12:33:58.527Z,99927.97
2022-11-12T12:37:03.663Z,99925.25
2022-11-12T12:40:13.395Z,99921.66
2022-11-12T12:43:17.651Z,99921.56
2022-11-12T12:46:21.523Z,99916.22
2022-11-12T12:49:28.676Z,99915.31
2022-11-12T12:52:31.148Z,99912.63
2022-11-12T12:55:39.333Z,99911.56
2022-11-12T12:58:43.358Z,99903.44
2022-11-12T13:02:05.823Z,99905.13
2022-11-12T13:05:22.581Z,99906.06
2022-11-12T13:08:26.234Z,99906.94
2022-11-12T13:12:06.912Z,99905.09
2022-11-12T13:15:11.735Z,99891.59
2022-11-12T13:18:35.015Z,99896.03
2022-11-12T13:21:36.736Z,99897.81
2022-11-12T13:24:57.123Z,99906.72
2022-11-12T13:28:09.527Z,99903.97
2022-11-12T13:31:26.856Z,99891.44
2022-11-12T13:34:31.574Z,99896.78
2022-11-12T13:37:33.464Z,99900.22
2022-11-12T13:40:38.496Z,99892.09
2022-11-12T13:43:42.734Z,99888.66
2022-11-12T13:46:45.938Z,99903.94
2022-11-12T13:49:48.195Z,99898.69
2022-11-12T13:52:50.048Z,99892.56
2022-11-12T13:55:52.716Z,99891.84
2022-11-12T13:58:54.511Z,99895.44
2022-11-12T14:02:03.806Z,99894.63
2022-11-12T14:05:13.051Z,99888.53
2022-11-12T14:08:24.620Z,99898.41
2022-11-12T14:11:36.914Z,99894.88
2022-11-12T14:14:47.241Z,99891.44
2022-11-12T14:17:56.830Z,99889.78
2022-11-12T14:20:58.491Z,99885.44
2022-11-12T14:24:02.076Z,99885.63
2022-11-12T14:27:04.229Z,99884.81
2022-11-12T14:30:11.594Z,99882.31
2022-11-12T14:33:19.617Z,99878.84
2022-11-12T14:36:22.071Z,99871.84
2022-11-12T14:39:24.538Z,99869.31
2022-11-12T14:42:35.641Z,99867.69
2022-11-12T14:45:37.240Z,99868.63
2022-11-12T14:48:46.296Z,99873.13
2022-11-12T14:51:49.166Z,99870.63
2022-11-12T14:54:52.148Z,99878.72
2022-11-12T14:57:58.808Z,99872.53
2022-11-12T15:01:47.768Z,99877.81
2022-11-12T15:04:43.463Z,99878.81
2022-11-12T15:07:52.843Z,99875.31
2022-11-12T15:10:54.901Z,99878.13
2022-11-12T15:13:57.049Z,99878.28
2022-11-12T15:17:00.779Z,99871.25
2022-11-12T15:20:05.001Z,99878.50
2022-11-12T15:23:14.533Z,99873.28
2022-11-12T15:26:24.031Z,99874.16
2022-11-12T15:29:30.093Z,99875.13
2022-11-12T15:32:32.471Z,99877.16
2022-11-12T15:35:37.275Z,99879.09
2022-11-12T15:38:38.891Z,99874.84
2022-11-12T15:41:40.492Z,99864.25
2022-11-12T15:44:42.355Z,99866.06
2022-11-12T15:47:43.867Z,99868.81
2022-11-12T15:50:47.055Z,99873.31
2022-11-12T15:53:48.615Z,99878.72
2022-11-12T15:56:50.668Z,99878.88
2022-11-12T15:59:54.935Z,99884.16
2022-11-12T16:02:59.306Z,99885.94
2022-11-12T16:06:08.608Z,99879.69
2022-11-12T16:09:11.038Z,99881.59
2022-11-12T16:12:13.466Z,99875.50
2022-11-12T16:15:15.557Z,99877.38
2022-11-12T16:18:17.078Z,99875.66
2022-11-12T16:21:21.090Z,99874.88
2022-11-12T16:24:22.912Z,99873.16
2022-11-12T16:27:25.579Z,99874.16
2022-11-12T16:30:28.901Z,99873.31
2022-11-12T16:33:30.891Z,99884.16
2022-11-12T16:36:33.990Z,99872.03
2022-11-12T16:39:35.639Z,99872.09
2022-11-12T16:42:37.111Z,99871.31
2022-11-12T16:45:39.939Z,99879.34
2022-11-12T16:48:41.669Z,99874.09
2022-11-12T16:51:44.725Z,99871.53
2022-11-12T16:54:46.250Z,99871.75
2022-11-12T16:57:47.754Z,99873.63
2022-11-12T17:00:52.700Z,99867.47
2022-11-12T17:03:57.991Z,99870.13
2022-11-12T17:07:01.011Z,99875.59
2022-11-12T17:10:02.635Z,99869.50
2022-11-12T17:13:04.102Z,99873.84
2022-11-12T17:16:06.620Z,99877.56
2022-11-12T17:19:10.331Z,99867.78
2022-11-12T17:22:26.949Z,99866.78
2022-11-12T17:26:02.486Z,99869.63
2022-11-12T17:29:08.091Z,99863.41
2022-11-12T17:32:10.828Z,99862.56
2022-11-12T17:35:15.251Z,99861.03
2022-11-12T17:38:18.235Z,99852.19
2022-11-12T17:41:19.753Z,99865.59
2022-11-12T17:44:21.271Z,99851.56
2022-11-12T17:47:22.955Z,99851.56
2022-11-12T17:50:25.382Z,99855.09
2022-11-12T17:53:29.741Z,99854.75
2022-11-12T17:56:36.958Z,99849.97
2022-11-12T17:59:38.769Z,99847.09
2022-11-12T18:02:40.320Z,99849.50
2022-11-12T18:05:41.860Z,99845.88
2022-11-12T18:08:44.970Z,99846.03
2022-11-12T18:11:47.577Z,99849.94
2022-11-12T18:14:49.108Z,99843.09
2022-11-12T18:17:52.377Z,99845.06
2022-11-12T18:20:54.113Z,99843.34
2022-11-12T18:23:57.057Z,99846.09
2022-11-12T18:26:58.564Z,99849.00
2022-11-12T18:30:00.571Z,99849.13
2022-11-12T18:33:02.060Z,99855.47
2022-11-12T18:36:04.238Z,99858.97
2022-11-12T18:39:07.648Z,99851.94
2022-11-12T18:42:09.291Z,99856.41
2022-11-12T18:45:11.002Z,99859.19
2022-11-12T18:48:12.753Z,99852.09
2022-11-12T18:51:15.304Z,99851.09
2022-11-12T18:54:18.236Z,99849.06
2022-11-12T18:57:19.902Z,99847.19
2022-11-12T19:00:21.594Z,99843.56
2022-11-12T19:03:23.175Z,99846.16
2022-11-12T19:06:27.826Z,99841.75
2022-11-12T19:09:30.873Z,99847.97
2022-11-12T19:12:32.351Z,99846.16
2022-11-12T19:15:34.293Z,99849.72
2022-11-12T19:18:35.779Z,99839.16
2022-11-12T19:21:37.395Z,99836.47
2022-11-12T19:24:40.230Z,99838.38
2022-11-12T19:27:42.570Z,99835.00
2022-11-12T19:30:44.027Z,99831.44
2022-11-12T19:33:46.719Z,99828.66
2022-11-12T19:36:48.448Z,99831.25
2022-11-12T19:39:56.187Z,99814.50
2022-11-12T19:42:57.872Z,99818.03
2022-11-12T19:46:07.476Z,99816.22
2022-11-12T19:49:12.033Z,99818.81
2022-11-12T19:52:13.500Z,99816.16
2022-11-12T19:55:16.511Z,99803.78
2022-11-12T19:58:18.209Z,99800.44
2022-11-12T20:01:19.985Z,99804.94
2022-11-12T20:04:24.199Z,99803.19
2022-11-12T20:07:26.087Z,99812.84
2022-11-12T20:10:28.901Z,99802.84
2022-11-12T20:13:30.397Z,99801.94
2022-11-12T20:16:33.170Z,99799.25
2022-11-12T20:19:35.561Z,99795.59
2022-11-12T20:22:37.034Z,99793.81
2022-11-12T20:25:39.913Z,99793.78
2022-11-12T20:28:42.426Z,99793.78
2022-11-12T20:31:43.914Z,99791.13
2022-11-12T20:34:45.479Z,99787.59
2022-11-12T20:37:47.228Z,99784.13
2022-11-12T20:40:56.392Z,99785.94
2022-11-12T20:44:04.441Z,99783.28
2022-11-12T20:47:05.874Z,99780.56
2022-11-12T20:50:07.672Z,99786.72
2022-11-12T20:53:09.471Z,99791.13
2022-11-12T20:56:13.399Z,99787.59
2022-11-12T20:59:15.102Z,99777.88
2022-11-12T21:02:16.676Z,99778.78
2022-11-12T21:05:18.525Z,99769.94
2022-11-12T21:08:23.862Z,99769.94
2022-11-12T21:11:27.142Z,99763.69
2022-11-12T21:14:28.660Z,99757.47
2022-11-12T21:17:30.111Z,99757.47
2022-11-12T21:20:31.584Z,99767.19
2022-11-12T21:23:34.202Z,99757.47
2022-11-12T21:26:40.092Z,99758.38
2022-11-12T21:29:41.664Z,99755.03
2022-11-12T21:32:43.095Z,99750.78
2022-11-12T21:35:51.164Z,99747.94
2022-11-12T21:38:52.668Z,99748.81
2022-11-12T21:41:55.539Z,99749.56
2022-11-12T21:44:57.099Z,99741.50
2022-11-12T21:47:59.488Z,99740.47
2022-11-12T21:51:02.440Z,99743.06
2022-11-12T21:54:05.249Z,99738.56
2022-11-12T21:57:08.286Z,99729.75
2022-11-12T22:00:39.572Z,99728.03
2022-11-12T22:03:31.984Z,99729.00
2022-11-12T22:06:36.174Z,99730.88
2022-11-12T22:09:38.027Z,99731.09
2022-11-12T22:12:42.968Z,99729.44
2022-11-12T22:15:55.167Z,99721.44
2022-11-12T22:18:58.381Z,99711.78
2022-11-12T22:22:00.630Z,99713.56
2022-11-12T22:25:02.400Z,99710.09
2022-11-12T22:28:05.288Z,99715.41
2022-11-12T22:31:08.227Z,99710.91
2022-11-12T22:34:09.682Z,99714.44
2022-11-12T22:37:11.875Z,99699.53
2022-11-12T22:40:13.830Z,99697.78
2022-11-12T22:43:16.662Z,99697.81
2022-11-12T22:46:18.915Z,99706.72
2022-11-12T22:49:20.512Z,99705.00
2022-11-12T22:52:21.933Z,99706.81
2022-11-12T22:55:23.485Z,99704.19
2022-11-12T22:58:26.915Z,99700.47
2022-11-12T23:01:30.371Z,99691.44
2022-11-12T23:04:31.883Z,99698.50
2022-11-12T23:07:33.391Z,99690.53
2022-11-12T23:10:34.993Z,99693.28
2022-11-12T23:13:38.994Z,99685.44
2022-11-12T23:16:40.676Z,99691.69
2022-11-12T23:19:42.101Z,99690.78
2022-11-12T23:22:43.631Z,99694.38
2022-11-12T23:25:45.171Z,99693.59
2022-11-12T23:28:49.577Z,99690.19
2022-11-12T23:31:51.254Z,99690.22
2022-11-12T23:34:52.881Z,99684.16
2022-11-12T23:37:54.692Z,99689.56
2022-11-12T23:40:56.195Z,99685.09
2022-11-12T23:43:59.193Z,99679.78
2022-11-12T23:47:01.051Z,99675.44
2022-11-12T23:50:03.493Z,99677.22
2022-11-12T23:53:04.970Z,99674.53
2022-11-12T23:56:07.428Z,99681.72
2022-11-12T23:59:10.340Z,99678.22
